Time;durP1;ratioP1;P1;durP2;ratioP2;P2;SDS_P1;SDS_P2;PMS_P1;PMS_P2;Temp;Humidity;BMP_temperature;BMP_pressure;BME280_temperature;BME280_humidity;BME280_pressure;Samples;Min_cycle;Max_cycle;Signal;HPM_P1;HPM_P2
2022/05/10 00:00:16;;;;;;;6.80;6.10;;;;;;;14.16;72.81;99181.97;5063657;28;20229;-53
2022/05/10 00:02:47;;;;;;;7.90;6.23;;;;;;;14.10;73.45;99177.34;5069882;28;20212;-51
2022/05/10 00:05:13;;;;;;;8.27;7.03;;;;;;;14.05;73.74;99169.13;5066405;28;20213;-51
2022/05/10 00:07:41;;;;;;;7.33;6.27;;;;;;;14.01;74.72;99173.88;5070444;28;20563;-53
2022/05/10 00:10:11;;;;;;;8.73;6.97;;;;;;;13.94;75.16;99164.19;5065525;28;20220;-51
2022/05/10 00:12:39;;;;;;;7.93;6.63;;;;;;;13.93;74.50;99165.97;5071475;28;20243;-51
2022/05/10 00:15:07;;;;;;;7.83;6.70;;;;;;;13.86;75.28;99167.56;5068545;28;20292;-52
2022/05/10 00:17:38;;;;;;;9.23;6.57;;;;;;;13.82;75.99;99161.84;5044679;28;20514;-52
2022/05/10 00:20:08;;;;;;;8.50;6.97;;;;;;;13.84;78.35;99157.25;5071863;28;20204;-53
2022/05/10 00:22:35;;;;;;;10.67;7.57;;;;;;;13.79;77.83;99166.56;5066279;28;20198;-52
2022/05/10 00:25:03;;;;;;;8.70;7.90;;;;;;;13.68;77.78;99155.41;5048088;28;20630;-53
2022/05/10 00:27:30;;;;;;;9.50;7.10;;;;;;;13.68;77.54;99155.41;5059439;28;20202;-53
2022/05/10 00:30:00;;;;;;;10.10;7.40;;;;;;;13.63;78.19;99152.44;5050233;28;20276;-52
2022/05/10 00:32:31;;;;;;;8.03;7.07;;;;;;;13.56;79.47;99156.66;5059426;28;20193;-52
2022/05/10 00:34:58;;;;;;;11.17;7.50;;;;;;;13.48;79.93;99156.63;5071249;28;20294;-51
2022/05/10 00:37:28;;;;;;;11.20;7.57;;;;;;;13.51;79.47;99154.50;5060881;28;20187;-52
2022/05/10 00:39:55;;;;;;;8.23;7.43;;;;;;;13.42;79.58;99152.81;5057994;28;20222;-51
2022/05/10 00:42:29;;;;;;;11.03;7.23;;;;;;;13.37;79.13;99148.00;5071366;28;20328;-52
2022/05/10 00:45:03;;;;;;;9.73;7.67;;;;;;;13.35;79.21;99151.75;5067123;28;20241;-54
2022/05/10 00:47:39;;;;;;;11.67;8.23;;;;;;;13.32;79.27;99155.53;5034590;28;20191;-51
2022/05/10 00:50:13;;;;;;;10.03;7.37;;;;;;;13.27;79.02;99148.09;5053508;28;20186;-53
2022/05/10 00:53:04;;;;;;;14.47;7.47;;;;;;;13.25;78.67;99138.78;5071388;28;20196;-51
2022/05/10 00:55:37;;;;;;;7.77;6.97;;;;;;;13.20;78.92;99136.63;5070801;28;20226;-53
2022/05/10 00:58:11;;;;;;;9.77;7.43;;;;;;;13.21;78.82;99130.41;5071096;28;20569;-51
2022/05/10 01:00:40;;;;;;;8.17;7.03;;;;;;;13.25;78.14;99141.38;5060059;28;20241;-53
2022/05/10 01:03:16;;;;;;;8.30;7.43;;;;;;;13.24;80.07;99145.81;5056085;28;20708;-52
2022/05/10 01:05:48;;;;;;;8.27;7.37;;;;;;;13.20;81.36;99144.50;5070227;28;20228;-53
2022/05/10 01:08:21;;;;;;;9.50;7.93;;;;;;;13.16;80.39;99137.06;5059297;28;20265;-53
2022/05/10 01:10:53;;;;;;;7.77;6.97;;;;;;;13.12;80.51;99134.75;5043607;28;20516;-51
2022/05/10 01:13:28;;;;;;;8.37;7.57;;;;;;;13.13;81.85;99133.78;5057013;28;20198;-52
2022/05/10 01:16:04;;;;;;;9.40;7.97;;;;;;;13.04;82.05;99132.09;5057605;28;20210;-52
2022/05/10 01:18:32;;;;;;;9.20;7.67;;;;;;;12.97;82.65;99128.44;5059355;28;20215;-50
2022/05/10 01:21:06;;;;;;;11.93;8.33;;;;;;;12.98;82.49;99124.84;5054470;28;20247;-50
2022/05/10 01:24:15;;;;;;;11.77;8.13;;;;;;;12.89;82.68;99126.59;5056458;28;20782;-51
2022/05/10 01:26:57;;;;;;;9.87;7.60;;;;;;;12.81;82.91;99126.53;5048257;28;20602;-51
2022/05/10 01:29:30;;;;;;;9.57;7.70;;;;;;;12.78;82.17;99119.78;5045754;28;20207;-53
2022/05/10 01:34:59;;;;;;;8.53;7.47;;;;;;;12.69;82.99;99125.97;5008392;28;20239;-52
2022/05/10 01:37:31;;;;;;;11.20;8.10;;;;;;;12.69;84.00;99128.59;5049933;28;20204;-53
2022/05/10 01:40:05;;;;;;;10.87;8.13;;;;;;;12.71;84.37;99113.53;5061666;28;20744;-51
2022/05/10 01:42:38;;;;;;;8.57;7.67;;;;;;;12.68;83.53;99116.47;5074355;28;20198;-51
2022/05/10 01:45:31;;;;;;;9.07;7.27;;;;;;;12.67;83.87;99117.44;5052600;28;20226;-51
2022/05/10 01:48:01;;;;;;;9.50;8.50;;;;;;;12.70;85.28;99122.38;5060059;28;20695;-53
2022/05/10 01:50:36;;;;;;;10.37;7.97;;;;;;;12.66;84.57;99119.22;5065807;28;20284;-51
2022/05/10 01:53:07;;;;;;;9.30;8.30;;;;;;;12.69;85.11;99115.50;5047228;28;20618;-51
2022/05/10 01:55:37;;;;;;;9.17;7.97;;;;;;;12.60;85.13;99113.78;5057190;28;20248;-51
2022/05/10 01:58:09;;;;;;;10.73;8.20;;;;;;;12.55;85.31;99112.44;5049985;28;20205;-51
2022/05/10 02:00:39;;;;;;;9.93;8.63;;;;;;;12.62;87.35;99104.78;5065195;28;20197;-52
2022/05/10 02:03:14;;;;;;;9.80;8.20;;;;;;;12.60;87.63;99105.94;5066499;28;20223;-52
2022/05/10 02:05:53;;;;;;;10.57;8.23;;;;;;;12.59;86.89;99101.66;5055793;28;20210;-52
2022/05/10 02:08:28;;;;;;;10.77;8.27;;;;;;;12.62;86.06;99102.16;5055436;28;20193;-51
2022/05/10 02:11:01;;;;;;;10.83;7.93;;;;;;;12.62;86.90;99101.38;5075322;28;20193;-51
2022/05/10 02:13:53;;;;;;;8.57;7.70;;;;;;;12.70;85.18;99094.38;5073443;28;20208;-51
2022/05/10 02:16:25;;;;;;;9.43;8.20;;;;;;;12.75;84.83;99093.91;5045586;28;20201;-51
2022/05/10 02:18:59;;;;;;;12.13;8.53;;;;;;;12.83;85.47;99091.34;5064291;28;20239;-51
2022/05/10 02:21:31;;;;;;;9.90;7.40;;;;;;;12.77;84.87;99094.56;5047618;28;20229;-51
2022/05/10 02:24:02;;;;;;;11.70;8.27;;;;;;;12.79;84.41;99097.84;5053348;28;20218;-51
2022/05/10 02:26:33;;;;;;;10.43;8.60;;;;;;;12.73;85.07;99089.81;5071461;28;20705;-52
2022/05/10 02:29:07;;;;;;;12.10;8.30;;;;;;;12.72;85.05;99090.78;5071047;28;20296;-51
2022/05/10 02:34:23;;;;;;;11.10;8.23;;;;;;;12.75;84.83;99083.41;5067440;28;20234;-51
2022/05/10 02:36:50;;;;;;;10.63;8.40;;;;;;;12.84;84.28;99089.56;5074115;28;20648;-51
2022/05/10 02:39:17;;;;;;;13.83;8.30;;;;;;;12.93;83.26;99082.56;5075135;28;20193;-53
2022/05/10 02:41:44;;;;;;;9.23;8.27;;;;;;;12.90;83.06;99088.09;5074780;28;20291;-52
2022/05/10 02:44:10;;;;;;;11.53;8.20;;;;;;;12.84;83.58;99085.13;5074473;28;20220;-53
2022/05/10 02:46:39;;;;;;;9.80;7.80;;;;;;;12.87;84.55;99084.00;5074191;28;20244;-52
2022/05/10 02:49:07;;;;;;;10.20;8.47;;;;;;;12.88;84.71;99088.28;5074202;28;20276;-53
2022/05/10 02:51:52;;;;;;;12.47;8.10;;;;;;;12.74;84.01;99086.22;5074770;28;20547;-52
2022/05/10 02:54:19;;;;;;;11.93;8.40;;;;;;;12.68;84.35;99088.47;5074270;28;20373;-52
2022/05/10 02:56:46;;;;;;;9.30;8.37;;;;;;;12.68;84.57;99079.81;5049839;28;20285;-53
2022/05/10 02:59:18;;;;;;;9.37;8.37;;;;;;;12.68;83.96;99078.00;5063404;28;20261;-54
2022/05/10 03:01:54;;;;;;;9.77;7.83;;;;;;;12.63;84.41;99084.69;5072827;28;20210;-52
2022/05/10 03:04:22;;;;;;;10.53;8.73;;;;;;;12.65;85.51;99082.72;5055858;28;20236;-52
2022/05/10 03:06:49;;;;;;;10.17;8.07;;;;;;;12.59;85.76;99076.28;5053522;28;20194;-52
2022/05/10 03:09:17;;;;;;;11.37;8.67;;;;;;;12.50;85.56;99085.88;5053182;28;20575;-51
2022/05/10 03:11:44;;;;;;;10.53;8.23;;;;;;;12.52;86.62;99083.09;5052426;28;20202;-52
2022/05/10 03:14:12;;;;;;;9.67;8.57;;;;;;;12.51;87.16;99090.16;5060074;28;20226;-52
2022/05/10 03:16:40;;;;;;;9.90;8.00;;;;;;;12.58;87.04;99087.75;5055865;28;20258;-52
2022/05/10 03:19:09;;;;;;;11.73;8.03;;;;;;;12.47;87.94;99080.97;5059597;28;20638;-53
2022/05/10 03:21:38;;;;;;;9.27;8.10;;;;;;;12.46;86.58;99083.72;5045030;28;20191;-53
2022/05/10 03:24:06;;;;;;;8.93;7.87;;;;;;;12.40;86.78;99088.56;5031887;28;20230;-53
2022/05/10 03:26:34;;;;;;;9.40;7.80;;;;;;;12.37;86.74;99096.72;5055336;28;20665;-52
2022/05/10 03:29:02;;;;;;;14.03;8.37;;;;;;;12.39;87.23;99096.59;5063862;28;20207;-52
2022/05/10 03:31:30;;;;;;;10.70;8.00;;;;;;;12.27;86.90;99093.38;5054593;28;20201;-52
2022/05/10 03:36:44;;;;;;;12.10;8.20;;;;;;;12.34;87.44;99083.94;5047307;28;20182;-54
2022/05/10 03:39:11;;;;;;;10.07;8.13;;;;;;;12.39;87.05;99086.94;5049360;28;20186;-52
2022/05/10 03:41:38;;;;;;;8.60;7.77;;;;;;;12.43;86.21;99086.63;5054091;28;20190;-54
2022/05/10 03:44:06;;;;;;;10.07;8.13;;;;;;;12.37;86.81;99088.06;5040392;28;20695;-52
2022/05/10 03:46:34;;;;;;;10.30;9.10;;;;;;;12.32;87.37;99085.09;5034370;28;20252;-52
2022/05/10 03:49:02;;;;;;;8.70;7.80;;;;;;;12.23;88.23;99085.00;5034120;28;20198;-52
2022/05/10 03:51:29;;;;;;;10.27;7.87;;;;;;;12.19;87.57;99083.66;5033840;28;20191;-52
2022/05/10 03:53:58;;;;;;;10.53;8.70;;;;;;;12.16;88.91;99077.91;5033162;28;20276;-51
2022/05/10 03:56:26;;;;;;;10.50;8.50;;;;;;;12.16;88.91;99080.53;5033516;28;20209;-53
2022/05/10 03:58:57;;;;;;;10.07;8.30;;;;;;;12.12;88.40;99080.00;5034375;28;20172;-52
2022/05/10 04:01:28;;;;;;;11.13;8.47;;;;;;;12.28;90.38;99079.31;5035162;28;20654;-53
2022/05/10 04:03:55;;;;;;;9.53;8.50;;;;;;;12.27;89.87;99076.84;5033703;28;20285;-52
2022/05/10 04:06:22;;;;;;;10.53;7.83;;;;;;;12.22;89.90;99072.06;5034202;28;20191;-52
2022/05/10 04:08:49;;;;;;;9.17;7.73;;;;;;;12.32;87.69;99072.81;5034662;28;20190;-54
2022/05/10 04:11:18;;;;;;;9.63;8.63;;;;;;;12.39;87.85;99067.81;5034248;28;20191;-52
2022/05/10 04:13:44;;;;;;;9.57;8.07;;;;;;;12.44;89.16;99073.41;5033922;28;20191;-52
2022/05/10 04:16:12;;;;;;;11.50;9.37;;;;;;;12.48;88.77;99076.53;5034044;28;20187;-52
2022/05/10 04:18:39;;;;;;;10.30;8.53;;;;;;;12.48;88.19;99072.13;5034071;28;20191;-52
2022/05/10 04:21:06;;;;;;;10.07;9.00;;;;;;;12.50;87.88;99071.97;5033892;28;20198;-53
2022/05/10 04:23:33;;;;;;;11.87;9.03;;;;;;;12.48;87.21;99074.75;5033312;28;20189;-52
2022/05/10 04:26:05;;;;;;;10.10;8.20;;;;;;;12.56;87.65;99073.97;5033015;28;20246;-50
2022/05/10 04:28:36;;;;;;;8.70;7.77;;;;;;;12.59;87.64;99075.47;5035837;28;20256;-52
2022/05/10 04:31:04;;;;;;;13.93;8.37;;;;;;;12.57;87.98;99086.09;5062814;28;20292;-52
2022/05/10 04:33:33;;;;;;;11.90;8.87;;;;;;;12.55;88.62;99083.63;5058153;28;20255;-51
2022/05/10 04:36:00;;;;;;;11.80;8.60;;;;;;;12.53;88.19;99090.81;5049183;28;20222;-52
2022/05/10 04:38:28;;;;;;;10.27;8.10;;;;;;;12.57;87.85;99098.38;5056550;28;20195;-51
2022/05/10 04:43:44;;;;;;;10.47;8.30;;;;;;;12.68;87.76;99096.31;5034526;28;20203;-52
2022/05/10 04:46:11;;;;;;;8.90;8.00;;;;;;;12.78;87.91;99098.84;5031454;28;20246;-51
2022/05/10 04:48:38;;;;;;;10.27;8.20;;;;;;;12.80;88.52;99109.97;5032312;28;20245;-52
2022/05/10 04:51:07;;;;;;;8.30;7.50;;;;;;;12.87;88.40;99104.97;5031339;28;20195;-54
2022/05/10 04:53:35;;;;;;;9.93;8.47;;;;;;;12.95;87.94;99114.66;5032262;28;20266;-49
2022/05/10 04:56:05;;;;;;;9.43;8.03;;;;;;;13.07;87.63;99120.50;5032545;28;20258;-51
2022/05/10 04:58:33;;;;;;;10.40;8.33;;;;;;;13.15;87.91;99125.78;5033387;28;20239;-54
2022/05/10 05:01:03;;;;;;;9.57;8.00;;;;;;;13.22;88.00;99133.84;5034417;28;20524;-52
2022/05/10 05:03:30;;;;;;;14.30;8.30;;;;;;;13.34;87.70;99127.34;5033677;28;20192;-52
2022/05/10 05:05:57;;;;;;;9.67;8.33;;;;;;;13.39;88.58;99134.72;5032733;28;20234;-53
2022/05/10 05:08:25;;;;;;;11.60;8.57;;;;;;;13.51;87.90;99135.31;5033341;28;20219;-52
2022/05/10 05:10:54;;;;;;;9.07;8.17;;;;;;;13.63;86.86;99148.97;5032492;28;20188;-53
2022/05/10 05:13:20;;;;;;;10.60;7.90;;;;;;;13.64;86.70;99143.59;5032673;28;20672;-54
2022/05/10 05:15:48;;;;;;;9.60;8.00;;;;;;;13.76;86.82;99141.47;5031185;28;20218;-52
2022/05/10 05:18:16;;;;;;;10.00;8.07;;;;;;;13.85;86.30;99153.66;5032694;28;20551;-50
2022/05/10 05:20:44;;;;;;;9.63;7.83;;;;;;;14.02;85.54;99148.47;5032446;28;20188;-51
2022/05/10 05:23:13;;;;;;;9.47;8.17;;;;;;;14.10;86.00;99150.25;5033052;28;20546;-52
2022/05/10 05:25:42;;;;;;;11.67;8.77;;;;;;;14.19;84.90;99151.94;5032429;28;20288;-50
2022/05/10 05:28:11;;;;;;;10.20;8.47;;;;;;;14.36;84.35;99151.97;5032727;28;20190;-52
2022/05/10 05:30:42;;;;;;;8.40;7.50;;;;;;;14.50;83.97;99145.22;5032500;28;20240;-52
2022/05/10 05:33:09;;;;;;;8.33;7.43;;;;;;;14.62;83.86;99149.19;5032416;28;20190;-52
2022/05/10 05:35:37;;;;;;;9.07;8.17;;;;;;;14.71;84.80;99150.03;5034614;28;20201;-52
2022/05/10 05:38:05;;;;;;;8.60;7.70;;;;;;;14.86;85.31;99155.44;5052327;28;20278;-53
2022/05/10 05:40:34;;;;;;;8.77;7.93;;;;;;;15.00;85.02;99153.94;5049500;28;20204;-53
2022/05/10 05:43:21;;;;;;;8.83;7.93;;;;;;;15.15;84.30;99149.66;5057047;28;20300;-51
2022/05/10 05:45:50;;;;;;;10.13;8.47;;;;;;;15.31;83.29;99153.22;5059877;28;20215;-53
2022/05/10 05:48:17;;;;;;;9.63;8.73;;;;;;;15.46;82.00;99155.97;5037766;28;20255;-54
2022/05/10 05:50:46;;;;;;;9.30;8.40;;;;;;;15.57;83.10;99154.81;5031940;28;20192;-52
2022/05/10 05:53:18;;;;;;;11.80;9.00;;;;;;;15.73;82.46;99152.09;5031540;28;20727;-52
2022/05/10 05:55:48;;;;;;;10.10;8.37;;;;;;;15.87;82.01;99155.03;5031419;28;20203;-52
2022/05/10 05:58:16;;;;;;;22.17;10.23;;;;;;;16.06;81.12;99149.31;5031815;28;20453;-52
2022/05/10 06:00:44;;;;;;;18.70;10.20;;;;;;;16.21;79.69;99145.94;5031839;28;20193;-49
2022/05/10 06:03:11;;;;;;;24.17;10.83;;;;;;;16.35;79.40;99147.81;5031493;28;20267;-52
2022/05/10 06:05:38;;;;;;;16.80;8.40;;;;;;;16.52;78.88;99153.78;5031058;28;20271;-52
2022/05/10 06:08:09;;;;;;;12.83;8.40;;;;;;;16.67;78.27;99153.84;5030221;28;20205;-49
2022/05/10 06:10:35;;;;;;;9.73;8.73;;;;;;;16.78;78.71;99151.78;5031396;28;20529;-49
2022/05/10 06:13:03;;;;;;;9.17;8.17;;;;;;;16.89;78.21;99150.53;5031428;28;20218;-49
2022/05/10 06:15:31;;;;;;;11.13;8.03;;;;;;;16.96;78.31;99149.66;5030927;28;20747;-50
2022/05/10 06:17:59;;;;;;;9.00;8.10;;;;;;;17.07;78.59;99152.84;5031302;28;20182;-49
2022/05/10 06:20:27;;;;;;;9.30;8.27;;;;;;;17.14;77.98;99151.13;5030029;28;20194;-49
2022/05/10 06:22:55;;;;;;;9.60;8.07;;;;;;;17.20;78.38;99146.97;5033022;28;20216;-49
2022/05/10 06:25:24;;;;;;;10.53;8.07;;;;;;;17.33;76.27;99143.69;5034586;28;20214;-50
2022/05/10 06:27:55;;;;;;;8.83;7.93;;;;;;;17.36;77.00;99141.50;5035010;28;20183;-49
2022/05/10 06:30:24;;;;;;;9.30;8.27;;;;;;;17.42;77.50;99145.22;5032934;28;20190;-49
2022/05/10 06:32:52;;;;;;;9.00;7.77;;;;;;;17.46;75.99;99149.13;5034542;28;20512;-49
2022/05/10 06:35:20;;;;;;;8.77;7.63;;;;;;;17.58;75.92;99146.84;5034720;28;20613;-49
2022/05/10 06:40:33;;;;;;;10.27;8.00;;;;;;;17.73;75.41;99152.13;5034619;28;20670;-49
2022/05/10 06:43:02;;;;;;;9.33;7.90;;;;;;;17.85;74.64;99150.66;5034539;28;20547;-50
2022/05/10 06:45:32;;;;;;;10.03;8.50;;;;;;;17.92;74.31;99142.00;5032655;28;20311;-50
2022/05/10 06:47:59;;;;;;;13.17;8.67;;;;;;;17.99;74.10;99143.72;5034240;28;20184;-51
2022/05/10 06:50:27;;;;;;;9.20;8.17;;;;;;;18.02;74.62;99150.44;5033975;28;20287;-49
2022/05/10 06:52:57;;;;;;;9.13;8.23;;;;;;;18.12;75.07;99145.66;5032653;28;20198;-49
2022/05/10 06:55:25;;;;;;;10.07;8.10;;;;;;;18.20;73.27;99147.41;5033563;28;20206;-49
2022/05/10 06:57:54;;;;;;;8.23;7.53;;;;;;;18.37;71.72;99152.44;5033774;28;20554;-49
2022/05/10 07:00:22;;;;;;;11.57;9.23;;;;;;;18.37;68.52;99160.38;5032847;28;20204;-49
2022/05/10 07:02:49;;;;;;;13.50;10.17;;;;;;;18.32;67.47;99154.81;5032875;28;20335;-50
2022/05/10 07:05:19;;;;;;;14.70;11.87;;;;;;;18.20;66.99;99159.78;5032460;28;20212;-49
2022/05/10 07:07:46;;;;;;;13.30;11.27;;;;;;;18.08;67.91;99162.09;5034211;28;20193;-49
2022/05/10 07:10:18;;;;;;;16.87;12.07;;;;;;;18.09;68.03;99161.91;5033930;28;20191;-50
2022/05/10 07:12:46;;;;;;;15.87;11.73;;;;;;;18.25;67.29;99162.66;5034091;28;20365;-49
2022/05/10 07:15:16;;;;;;;14.50;11.20;;;;;;;18.33;65.64;99170.47;5033800;28;20606;-49
2022/05/10 07:17:46;;;;;;;15.97;12.30;;;;;;;18.20;65.79;99163.25;5034003;28;20188;-49
2022/05/10 07:20:15;;;;;;;16.40;10.87;;;;;;;18.23;65.19;99160.22;5033615;28;20199;-49
2022/05/10 07:23:00;;;;;;;12.90;11.47;;;;;;;18.32;65.33;99160.91;5034535;28;20688;-51
2022/05/10 07:25:28;;;;;;;11.30;10.20;;;;;;;18.52;65.76;99165.56;5032146;28;20223;-49
2022/05/10 07:27:55;;;;;;;12.17;9.47;;;;;;;18.79;64.08;99163.97;5033835;28;20657;-50
2022/05/10 07:30:26;;;;;;;13.83;10.90;;;;;;;18.82;63.23;99157.50;5033668;28;20278;-49
2022/05/10 07:32:54;;;;;;;15.77;10.87;;;;;;;18.97;62.61;99166.19;5032932;28;20609;-50
2022/05/10 07:36:23;;;;;;;14.30;11.50;;;;;;;18.98;63.95;99169.66;5035426;28;20569;-50
2022/05/10 07:38:12;;;;;;;16.67;13.53;;;;;;;19.02;64.21;99157.66;5067256;28;20497;-51
2022/05/10 07:40:40;;;;;;;14.67;13.17;;;;;;;18.97;64.10;99162.72;5061342;28;20202;-50
2022/05/10 07:43:13;;;;;;;16.63;13.47;;;;;;;18.92;64.37;99162.44;5053266;28;20191;-50
2022/05/10 07:45:46;;;;;;;16.70;13.30;;;;;;;19.07;64.47;99155.25;5034985;28;20213;-51
2022/05/10 07:48:14;;;;;;;16.60;13.07;;;;;;;19.10;65.20;99159.34;5033400;28;20268;-50
2022/05/10 07:50:41;;;;;;;14.17;12.23;;;;;;;19.18;65.12;99159.19;5032794;28;20259;-50
2022/05/10 07:53:10;;;;;;;15.43;13.00;;;;;;;19.17;63.74;99152.25;5032577;28;20406;-51
2022/05/10 07:55:38;;;;;;;14.17;12.43;;;;;;;19.24;63.57;99152.31;5032279;28;20692;-50
2022/05/10 07:58:23;;;;;;;13.63;12.03;;;;;;;19.23;65.17;99145.38;5033008;28;20196;-50
2022/05/10 08:00:52;;;;;;;17.67;11.40;;;;;;;19.24;62.78;99142.53;5031727;28;20202;-49
2022/05/10 08:03:22;;;;;;;13.73;11.30;;;;;;;19.38;63.68;99142.63;5032438;28;20672;-50
2022/05/10 08:05:51;;;;;;;14.87;11.50;;;;;;;19.38;63.56;99150.56;5031146;28;20207;-50
2022/05/10 08:08:19;;;;;;;12.93;11.60;;;;;;;19.39;63.61;99146.91;5033134;28;20193;-50
2022/05/10 08:10:48;;;;;;;12.47;10.40;;;;;;;19.56;64.15;99153.50;5033124;28;20194;-50
2022/05/10 08:13:18;;;;;;;12.80;11.27;;;;;;;19.61;66.01;99147.59;5033188;28;20193;-50
2022/05/10 08:15:45;;;;;;;10.97;9.87;;;;;;;19.75;66.58;99145.84;5032624;28;20679;-50
2022/05/10 08:18:15;;;;;;;14.70;10.57;;;;;;;19.87;64.02;99146.91;5032764;28;20269;-50
2022/05/10 08:20:43;;;;;;;13.20;10.40;;;;;;;19.64;63.33;99151.72;5032372;28;20187;-50
2022/05/10 08:23:12;;;;;;;13.07;10.27;;;;;;;19.71;64.68;99148.06;5032762;28;20198;-50
2022/05/10 08:25:59;;;;;;;15.47;10.40;;;;;;;19.79;66.16;99147.09;5037023;28;20345;-50
2022/05/10 08:28:29;;;;;;;12.90;10.20;;;;;;;19.95;66.97;99151.22;5052875;28;20197;-50
2022/05/10 08:30:57;;;;;;;12.90;10.17;;;;;;;20.09;62.77;99148.63;5051232;28;20213;-51
2022/05/10 08:33:28;;;;;;;12.17;8.73;;;;;;;20.19;61.65;99152.50;5052293;28;20178;-50
2022/05/10 08:35:57;;;;;;;12.37;10.37;;;;;;;20.19;61.89;99144.56;5050898;28;20646;-50
2022/05/10 08:38:25;;;;;;;13.03;9.67;;;;;;;20.42;62.19;99148.69;5052593;28;20271;-50
2022/05/10 08:40:57;;;;;;;10.87;8.83;;;;;;;20.50;60.56;99143.19;5052582;28;20194;-49
2022/05/10 08:43:30;;;;;;;14.67;9.03;;;;;;;20.65;59.10;99144.81;5051264;28;20241;-52
2022/05/10 08:45:58;;;;;;;11.27;9.23;;;;;;;20.64;60.03;99146.69;5051138;28;20406;-50
2022/05/10 08:48:30;;;;;;;9.40;8.50;;;;;;;20.78;58.13;99144.84;5052470;28;20190;-50
2022/05/10 08:50:58;;;;;;;10.80;8.67;;;;;;;20.90;58.39;99138.94;5050579;28;20193;-50
2022/05/10 08:53:26;;;;;;;9.33;8.37;;;;;;;20.98;59.49;99135.22;5051803;28;20183;-50
2022/05/10 08:56:00;;;;;;;12.30;9.40;;;;;;;21.09;58.11;99134.59;5051290;28;20274;-51
2022/05/10 08:58:39;;;;;;;12.87;8.77;;;;;;;21.08;57.91;99139.13;5051747;28;20212;-50
2022/05/10 09:01:12;;;;;;;9.90;8.87;;;;;;;21.15;57.61;99136.44;5052153;28;20182;-50
2022/05/10 09:03:45;;;;;;;10.80;8.70;;;;;;;21.31;56.93;99135.16;5052278;28;20195;-50
2022/05/10 09:06:18;;;;;;;9.87;8.77;;;;;;;21.45;57.63;99141.25;5050837;28;20301;-50
2022/05/10 09:09:01;;;;;;;9.23;8.33;;;;;;;21.54;57.58;99133.88;5052661;28;20615;-51
2022/05/10 09:11:37;;;;;;;9.47;8.57;;;;;;;21.51;57.36;99135.13;5052555;28;20182;-50
2022/05/10 09:14:06;;;;;;;9.40;8.30;;;;;;;21.65;56.81;99133.25;5052415;28;20300;-50
2022/05/10 09:16:33;;;;;;;10.30;8.23;;;;;;;21.77;56.87;99135.25;5052942;28;20574;-51
2022/05/10 09:19:02;;;;;;;10.47;8.10;;;;;;;21.84;55.33;99130.69;5053359;28;20198;-53
2022/05/10 09:21:37;;;;;;;10.27;8.53;;;;;;;21.82;55.53;99138.06;5052717;28;20194;-50
2022/05/10 09:24:15;;;;;;;11.63;8.80;;;;;;;21.86;56.91;99130.47;5051793;28;20196;-50
2022/05/10 09:26:44;;;;;;;9.60;8.70;;;;;;;21.72;56.20;99125.25;5052385;28;20213;-49
2022/05/10 09:29:17;;;;;;;9.40;8.17;;;;;;;21.94;55.18;99133.72;5052457;28;20661;-50
2022/05/10 09:34:50;;;;;;;8.97;7.80;;;;;;;22.06;53.99;99135.69;5052071;28;20217;-51
2022/05/10 09:37:24;;;;;;;13.50;8.57;;;;;;;22.05;53.84;99128.75;5048944;28;20193;-50
2022/05/10 09:40:02;;;;;;;8.33;7.27;;;;;;;22.32;52.47;99126.72;5051951;28;20694;-50
2022/05/10 09:42:33;;;;;;;8.90;8.00;;;;;;;22.36;51.98;99122.63;5042487;28;20255;-50
2022/05/10 09:45:04;;;;;;;8.97;8.03;;;;;;;22.38;52.51;99128.53;5050790;28;20625;-50
2022/05/10 09:47:33;;;;;;;10.17;7.80;;;;;;;22.51;52.74;99130.28;5050978;28;20227;-50
2022/05/10 09:50:17;;;;;;;11.20;7.50;;;;;;;22.69;52.16;99134.88;5048757;28;20190;-49
2022/05/10 09:52:45;;;;;;;8.10;7.30;;;;;;;22.65;52.16;99125.69;5047488;28;20192;-49
2022/05/10 09:55:26;;;;;;;8.33;7.60;;;;;;;22.68;49.24;99121.78;5051162;28;20217;-49
2022/05/10 09:57:55;;;;;;;12.07;7.30;;;;;;;22.78;50.89;99119.44;5052899;28;20208;-49
2022/05/10 10:00:41;;;;;;;7.87;7.03;;;;;;;22.88;49.95;99110.94;5052357;28;20196;-49
2022/05/10 10:03:09;;;;;;;8.27;7.47;;;;;;;23.07;49.64;99121.59;5048339;28;20547;-49
2022/05/10 10:05:38;;;;;;;7.20;6.33;;;;;;;22.97;48.41;99114.16;5037687;28;20210;-49
2022/05/10 10:08:07;;;;;;;8.17;7.07;;;;;;;22.88;48.90;99110.13;5035240;28;20251;-49
2022/05/10 10:10:36;;;;;;;9.23;6.63;;;;;;;22.92;50.15;99104.13;5035106;28;20185;-50
2022/05/10 10:13:29;;;;;;;10.70;6.63;;;;;;;23.12;49.71;99103.97;5035060;28;20190;-49
2022/05/10 10:15:56;;;;;;;8.83;5.83;;;;;;;23.33;48.49;99104.53;5033333;28;20579;-51
2022/05/10 10:18:49;;;;;;;6.93;5.93;;;;;;;23.49;45.59;99107.66;5043107;28;20190;-51
2022/05/10 10:21:23;;;;;;;9.93;7.07;;;;;;;23.33;47.78;99107.22;5039800;28;20591;-50
2022/05/10 10:23:55;;;;;;;6.73;5.93;;;;;;;23.39;47.15;99108.19;5054093;28;20189;-49
2022/05/10 10:26:32;;;;;;;9.17;6.43;;;;;;;23.34;47.16;99102.72;5053100;28;20706;-50
2022/05/10 10:29:11;;;;;;;7.20;6.17;;;;;;;23.68;46.75;99103.13;5052939;28;20187;-49
2022/05/10 10:31:43;;;;;;;8.43;6.30;;;;;;;23.58;46.38;99090.31;5052739;28;20281;-49
2022/05/10 10:34:19;;;;;;;6.53;5.77;;;;;;;23.87;45.55;99091.34;5054148;28;20245;-49
2022/05/10 10:36:54;;;;;;;7.03;6.43;;;;;;;23.94;46.86;99093.13;5053288;28;20554;-49
2022/05/10 10:39:29;;;;;;;8.47;6.07;;;;;;;23.60;46.08;99090.91;5054716;28;20186;-51
2022/05/10 10:42:13;;;;;;;6.87;5.70;;;;;;;23.89;45.96;99093.81;5054952;28;20177;-49
2022/05/10 10:44:46;;;;;;;7.50;6.23;;;;;;;23.94;45.09;99093.13;5053796;28;20250;-49
2022/05/10 10:47:25;;;;;;;6.73;5.17;;;;;;;24.06;44.39;99086.00;5054711;28;20763;-49
2022/05/10 10:49:57;;;;;;;10.00;5.80;;;;;;;24.44;43.15;99084.78;5054436;28;20290;-49
2022/05/10 10:52:29;;;;;;;7.00;5.27;;;;;;;24.60;44.25;99087.81;5054235;28;20185;-50
2022/05/10 10:54:56;;;;;;;6.60;5.97;;;;;;;24.74;41.69;99081.25;5053741;28;20638;-49
2022/05/10 10:57:35;;;;;;;7.23;5.40;;;;;;;24.68;43.14;99087.47;5054169;28;20639;-49
2022/05/10 11:00:08;;;;;;;6.77;5.80;;;;;;;24.66;42.87;99080.72;5054141;28;20578;-49
2022/05/10 11:03:01;;;;;;;6.70;5.90;;;;;;;24.54;43.39;99076.19;5054192;28;20230;-49
2022/05/10 11:06:04;;;;;;;6.50;5.53;;;;;;;24.86;41.05;99075.88;5053718;28;20210;-49
2022/05/10 11:08:52;;;;;;;6.37;5.77;;;;;;;24.98;40.77;99077.72;5013641;28;20730;-49
2022/05/10 11:11:31;;;;;;;6.43;5.83;;;;;;;24.83;42.05;99071.00;5056167;28;20667;-49
2022/05/10 11:14:08;;;;;;;6.17;5.10;;;;;;;25.16;40.20;99069.56;5059032;28;20225;-49
2022/05/10 11:16:46;;;;;;;8.57;5.60;;;;;;;25.02;41.66;99073.53;5058350;28;20308;-49
2022/05/10 11:19:37;;;;;;;6.40;5.80;;;;;;;25.09;39.00;99066.22;5058604;28;20675;-49
2022/05/10 11:22:34;;;;;;;6.27;5.67;;;;;;;24.96;39.68;99069.13;5064098;28;20698;-49
2022/05/10 11:25:24;;;;;;;5.57;5.07;;;;;;;25.18;39.25;99066.66;5071772;28;20218;-50
2022/05/10 11:28:27;;;;;;;5.93;5.20;;;;;;;25.20;39.68;99061.88;5073326;28;20237;-50
2022/05/10 11:31:01;;;;;;;5.93;4.93;;;;;;;25.34;37.81;99059.75;5073166;28;20203;-49
2022/05/10 11:33:39;;;;;;;6.90;5.80;;;;;;;25.41;40.17;99051.59;5073452;28;20220;-49
2022/05/10 11:36:22;;;;;;;11.90;5.60;;;;;;;25.24;39.65;99046.19;5072998;28;20193;-49
2022/05/10 11:39:20;;;;;;;5.87;5.33;;;;;;;25.72;39.07;99042.31;5056481;28;20292;-49
2022/05/10 11:41:55;;;;;;;9.13;5.40;;;;;;;26.10;38.30;99039.97;5071157;28;20196;-49
2022/05/10 11:44:47;;;;;;;7.20;5.47;;;;;;;26.27;38.59;99042.69;5052633;28;20261;-49
2022/05/10 11:47:44;;;;;;;5.37;4.80;;;;;;;25.97;38.20;99030.41;5046839;28;20200;-49
2022/05/10 11:50:28;;;;;;;6.80;5.20;;;;;;;25.97;38.90;99026.94;5053250;28;20223;-50
2022/05/10 11:53:18;;;;;;;6.70;4.80;;;;;;;26.41;38.08;99029.78;5053047;28;20189;-49
2022/05/10 11:55:54;;;;;;;7.90;4.93;;;;;;;26.38;38.65;99032.94;5052827;28;20208;-49
2022/05/10 11:58:24;;;;;;;5.83;5.23;;;;;;;26.45;36.46;99017.53;5053524;28;20192;-50
2022/05/10 12:01:14;;;;;;;5.00;4.50;;;;;;;26.78;38.31;99020.38;5053196;28;20203;-51
2022/05/10 12:03:54;;;;;;;5.53;4.70;;;;;;;26.79;37.04;99014.78;5051005;28;20193;-51
2022/05/10 12:06:38;;;;;;;5.27;4.77;;;;;;;26.74;38.43;99012.03;5053432;28;20194;-49
2022/05/10 12:09:07;;;;;;;9.73;5.30;;;;;;;26.69;37.29;99003.94;5053846;28;20169;-49